sensor_id;sensor_type;location;lat;lon;timestamp;P1;durP1;ratioP1;P2;durP2;ratioP2
50757;SDS011;36732;47.980;11.652;2022-09-13T00:00:49;1.25;;;1.10;;
50757;SDS011;36732;47.980;11.652;2022-09-13T00:03:17;1.02;;;0.90;;
50757;SDS011;36732;47.980;11.652;2022-09-13T00:05:44;0.90;;;0.90;;
50757;SDS011;36732;47.980;11.652;2022-09-13T00:08:10;1.25;;;1.00;;
50757;SDS011;36732;47.980;11.652;2022-09-13T00:10:37;0.85;;;0.85;;
50757;SDS011;36732;47.980;11.652;2022-09-13T00:13:05;2.47;;;1.00;;
50757;SDS011;36732;47.980;11.652;2022-09-13T00:15:32;2.03;;;1.20;;
50757;SDS011;36732;47.980;11.652;2022-09-13T00:17:58;1.20;;;1.10;;
50757;SDS011;36732;47.980;11.652;2022-09-13T00:20:24;1.20;;;1.05;;
50757;SDS011;36732;47.980;11.652;2022-09-13T00:22:50;1.58;;;1.05;;
50757;SDS011;36732;47.980;11.652;2022-09-13T00:25:16;1.10;;;1.00;;
50757;SDS011;36732;47.980;11.652;2022-09-13T00:27:42;2.13;;;1.05;;
50757;SDS011;36732;47.980;11.652;2022-09-13T00:30:09;1.45;;;1.15;;
50757;SDS011;36732;47.980;11.652;2022-09-13T00:32:36;1.50;;;1.10;;
50757;SDS011;36732;47.980;11.652;2022-09-13T00:35:03;10.02;;;1.50;;
50757;SDS011;36732;47.980;11.652;2022-09-13T00:37:30;0.93;;;0.93;;
50757;SDS011;36732;47.980;11.652;2022-09-13T00:39:57;1.17;;;1.00;;
50757;SDS011;36732;47.980;11.652;2022-09-13T00:42:27;1.55;;;0.80;;
50757;SDS011;36732;47.980;11.652;2022-09-13T00:44:59;1.17;;;0.90;;
50757;SDS011;36732;47.980;11.652;2022-09-13T00:50:00;2.55;;;0.93;;
50757;SDS011;36732;47.980;11.652;2022-09-13T00:52:36;1.10;;;0.90;;
50757;SDS011;36732;47.980;11.652;2022-09-13T00:55:07;1.63;;;0.70;;
50757;SDS011;36732;47.980;11.652;2022-09-13T00:57:40;1.05;;;0.93;;
50757;SDS011;36732;47.980;11.652;2022-09-13T01:00:08;1.30;;;0.90;;
50757;SDS011;36732;47.980;11.652;2022-09-13T01:02:42;2.42;;;1.00;;
50757;SDS011;36732;47.980;11.652;2022-09-13T01:05:17;1.52;;;0.95;;
50757;SDS011;36732;47.980;11.652;2022-09-13T01:07:46;0.88;;;0.80;;
50757;SDS011;36732;47.980;11.652;2022-09-13T01:10:13;1.15;;;1.05;;
50757;SDS011;36732;47.980;11.652;2022-09-13T01:15:15;1.10;;;1.00;;
50757;SDS011;36732;47.980;11.652;2022-09-13T01:17:40;0.80;;;0.80;;
50757;SDS011;36732;47.980;11.652;2022-09-13T01:20:08;1.15;;;0.80;;
50757;SDS011;36732;47.980;11.652;2022-09-13T01:22:44;0.88;;;0.88;;
50757;SDS011;36732;47.980;11.652;2022-09-13T01:31:53;0.60;;;0.60;;
50757;SDS011;36732;47.980;11.652;2022-09-13T01:34:25;0.70;;;0.70;;
50757;SDS011;36732;47.980;11.652;2022-09-13T01:37:23;0.73;;;0.70;;
50757;SDS011;36732;47.980;11.652;2022-09-13T01:46:53;3.28;;;1.08;;
50757;SDS011;36732;47.980;11.652;2022-09-13T01:49:46;0.93;;;0.75;;
50757;SDS011;36732;47.980;11.652;2022-09-13T01:52:35;0.82;;;0.70;;
50757;SDS011;36732;47.980;11.652;2022-09-13T02:01:11;1.10;;;0.70;;
50757;SDS011;36732;47.980;11.652;2022-09-13T02:04:04;0.90;;;0.80;;
50757;SDS011;36732;47.980;11.652;2022-09-13T02:06:45;1.77;;;0.70;;
50757;SDS011;36732;47.980;11.652;2022-09-13T02:09:21;1.40;;;0.65;;
50757;SDS011;36732;47.980;11.652;2022-09-13T02:11:56;2.15;;;1.15;;
50757;SDS011;36732;47.980;11.652;2022-09-13T02:14:32;0.73;;;0.60;;
50757;SDS011;36732;47.980;11.652;2022-09-13T02:17:12;0.63;;;0.63;;
50757;SDS011;36732;47.980;11.652;2022-09-13T02:19:46;0.75;;;0.75;;
50757;SDS011;36732;47.980;11.652;2022-09-13T02:22:28;2.10;;;0.80;;
50757;SDS011;36732;47.980;11.652;2022-09-13T02:25:05;0.50;;;0.50;;
50757;SDS011;36732;47.980;11.652;2022-09-13T02:27:36;0.77;;;0.75;;
50757;SDS011;36732;47.980;11.652;2022-09-13T02:30:08;0.80;;;0.80;;
50757;SDS011;36732;47.980;11.652;2022-09-13T02:32:37;1.55;;;0.90;;
50757;SDS011;36732;47.980;11.652;2022-09-13T02:35:18;0.70;;;0.70;;
50757;SDS011;36732;47.980;11.652;2022-09-13T02:37:56;0.88;;;0.63;;
50757;SDS011;36732;47.980;11.652;2022-09-13T02:40:28;0.60;;;0.60;;
50757;SDS011;36732;47.980;11.652;2022-09-13T02:43:09;1.45;;;0.80;;
50757;SDS011;36732;47.980;11.652;2022-09-13T02:45:50;0.80;;;0.75;;
50757;SDS011;36732;47.980;11.652;2022-09-13T02:48:28;0.70;;;0.70;;
50757;SDS011;36732;47.980;11.652;2022-09-13T02:51:14;0.85;;;0.73;;
50757;SDS011;36732;47.980;11.652;2022-09-13T02:57:05;2.85;;;0.90;;
50757;SDS011;36732;47.980;11.652;2022-09-13T02:59:39;2.03;;;0.80;;
50757;SDS011;36732;47.980;11.652;2022-09-13T03:02:06;0.98;;;0.85;;
50757;SDS011;36732;47.980;11.652;2022-09-13T03:07:05;1.67;;;0.60;;
50757;SDS011;36732;47.980;11.652;2022-09-13T03:09:41;1.05;;;0.70;;
50757;SDS011;36732;47.980;11.652;2022-09-13T03:13:04;0.90;;;0.73;;
50757;SDS011;36732;47.980;11.652;2022-09-13T03:15:23;0.50;;;0.50;;
50757;SDS011;36732;47.980;11.652;2022-09-13T03:38:11;1.17;;;0.70;;
50757;SDS011;36732;47.980;11.652;2022-09-13T03:40:47;0.60;;;0.60;;
50757;SDS011;36732;47.980;11.652;2022-09-13T03:43:43;0.80;;;0.65;;
50757;SDS011;36732;47.980;11.652;2022-09-13T03:46:23;1.20;;;0.60;;
50757;SDS011;36732;47.980;11.652;2022-09-13T03:49:05;0.75;;;0.75;;
50757;SDS011;36732;47.980;11.652;2022-09-13T03:51:35;0.93;;;0.80;;
50757;SDS011;36732;47.980;11.652;2022-09-13T03:54:03;0.73;;;0.60;;
50757;SDS011;36732;47.980;11.652;2022-09-13T03:56:34;0.70;;;0.70;;
50757;SDS011;36732;47.980;11.652;2022-09-13T03:59:00;0.73;;;0.60;;
50757;SDS011;36732;47.980;11.652;2022-09-13T04:01:26;2.03;;;1.15;;
50757;SDS011;36732;47.980;11.652;2022-09-13T04:03:52;0.65;;;0.65;;
50757;SDS011;36732;47.980;11.652;2022-09-13T04:06:17;3.42;;;0.80;;
50757;SDS011;36732;47.980;11.652;2022-09-13T04:08:43;1.00;;;0.93;;
50757;SDS011;36732;47.980;11.652;2022-09-13T04:11:09;1.00;;;0.90;;
50757;SDS011;36732;47.980;11.652;2022-09-13T04:13:35;1.38;;;1.02;;
50757;SDS011;36732;47.980;11.652;2022-09-13T04:16:05;3.67;;;1.00;;
50757;SDS011;36732;47.980;11.652;2022-09-13T04:18:31;0.55;;;0.55;;
50757;SDS011;36732;47.980;11.652;2022-09-13T04:20:58;0.70;;;0.70;;
50757;SDS011;36732;47.980;11.652;2022-09-13T04:23:26;1.00;;;0.90;;
50757;SDS011;36732;47.980;11.652;2022-09-13T04:25:53;1.00;;;0.80;;
50757;SDS011;36732;47.980;11.652;2022-09-13T04:28:20;1.85;;;0.70;;
50757;SDS011;36732;47.980;11.652;2022-09-13T04:30:46;0.82;;;0.65;;
50757;SDS011;36732;47.980;11.652;2022-09-13T04:33:14;2.15;;;0.80;;
50757;SDS011;36732;47.980;11.652;2022-09-13T04:35:41;1.02;;;0.93;;
50757;SDS011;36732;47.980;11.652;2022-09-13T04:38:07;2.50;;;0.73;;
50757;SDS011;36732;47.980;11.652;2022-09-13T04:40:33;3.70;;;0.98;;
50757;SDS011;36732;47.980;11.652;2022-09-13T04:43:00;1.75;;;0.90;;
50757;SDS011;36732;47.980;11.652;2022-09-13T04:45:27;2.35;;;0.90;;
50757;SDS011;36732;47.980;11.652;2022-09-13T04:47:53;1.83;;;0.73;;
50757;SDS011;36732;47.980;11.652;2022-09-13T04:50:20;0.75;;;0.70;;
50757;SDS011;36732;47.980;11.652;2022-09-13T04:52:48;1.10;;;1.00;;
50757;SDS011;36732;47.980;11.652;2022-09-13T04:55:14;2.45;;;1.02;;
50757;SDS011;36732;47.980;11.652;2022-09-13T04:57:40;4.72;;;1.20;;
50757;SDS011;36732;47.980;11.652;2022-09-13T05:00:07;1.88;;;1.10;;
50757;SDS011;36732;47.980;11.652;2022-09-13T05:02:34;1.20;;;1.10;;
50757;SDS011;36732;47.980;11.652;2022-09-13T05:05:00;1.80;;;1.20;;
50757;SDS011;36732;47.980;11.652;2022-09-13T05:07:26;1.50;;;1.40;;
50757;SDS011;36732;47.980;11.652;2022-09-13T05:09:52;2.20;;;1.13;;
50757;SDS011;36732;47.980;11.652;2022-09-13T05:12:17;4.28;;;1.20;;
50757;SDS011;36732;47.980;11.652;2022-09-13T05:14:43;1.67;;;1.10;;
50757;SDS011;36732;47.980;11.652;2022-09-13T05:17:09;1.25;;;1.13;;
50757;SDS011;36732;47.980;11.652;2022-09-13T05:19:34;1.02;;;0.98;;
50757;SDS011;36732;47.980;11.652;2022-09-13T05:22:00;1.33;;;1.20;;
50757;SDS011;36732;47.980;11.652;2022-09-13T05:24:27;1.42;;;1.02;;
50757;SDS011;36732;47.980;11.652;2022-09-13T05:26:52;2.38;;;1.20;;
50757;SDS011;36732;47.980;11.652;2022-09-13T05:29:18;1.27;;;0.80;;
50757;SDS011;36732;47.980;11.652;2022-09-13T05:31:44;2.03;;;1.20;;
50757;SDS011;36732;47.980;11.652;2022-09-13T05:34:11;2.30;;;1.02;;
50757;SDS011;36732;47.980;11.652;2022-09-13T05:36:39;1.05;;;0.90;;
50757;SDS011;36732;47.980;11.652;2022-09-13T05:39:06;0.90;;;0.77;;
50757;SDS011;36732;47.980;11.652;2022-09-13T05:41:36;2.25;;;0.63;;
50757;SDS011;36732;47.980;11.652;2022-09-13T05:44:02;1.67;;;0.80;;
50757;SDS011;36732;47.980;11.652;2022-09-13T05:46:28;1.33;;;0.70;;
50757;SDS011;36732;47.980;11.652;2022-09-13T05:48:56;0.95;;;0.73;;
50757;SDS011;36732;47.980;11.652;2022-09-13T05:51:23;2.30;;;0.85;;
50757;SDS011;36732;47.980;11.652;2022-09-13T05:53:50;1.90;;;1.00;;
50757;SDS011;36732;47.980;11.652;2022-09-13T05:56:18;1.88;;;0.95;;
50757;SDS011;36732;47.980;11.652;2022-09-13T05:58:47;1.25;;;0.93;;
50757;SDS011;36732;47.980;11.652;2022-09-13T06:01:15;3.28;;;1.08;;
50757;SDS011;36732;47.980;11.652;2022-09-13T06:03:50;1.93;;;0.87;;
50757;SDS011;36732;47.980;11.652;2022-09-13T06:06:18;1.17;;;0.80;;
50757;SDS011;36732;47.980;11.652;2022-09-13T06:08:44;1.15;;;0.80;;
50757;SDS011;36732;47.980;11.652;2022-09-13T06:11:11;0.93;;;0.60;;
50757;SDS011;36732;47.980;11.652;2022-09-13T06:13:39;1.63;;;0.80;;
50757;SDS011;36732;47.980;11.652;2022-09-13T06:16:07;1.23;;;0.90;;
50757;SDS011;36732;47.980;11.652;2022-09-13T06:18:35;1.15;;;0.80;;
50757;SDS011;36732;47.980;11.652;2022-09-13T06:21:07;1.63;;;0.60;;
50757;SDS011;36732;47.980;11.652;2022-09-13T06:23:35;1.20;;;0.73;;
50757;SDS011;36732;47.980;11.652;2022-09-13T06:28:36;1.90;;;0.70;;
50757;SDS011;36732;47.980;11.652;2022-09-13T06:31:03;0.77;;;0.77;;
50757;SDS011;36732;47.980;11.652;2022-09-13T06:33:32;0.80;;;0.70;;
50757;SDS011;36732;47.980;11.652;2022-09-13T06:36:00;1.23;;;0.73;;
50757;SDS011;36732;47.980;11.652;2022-09-13T06:38:32;1.58;;;0.63;;
50757;SDS011;36732;47.980;11.652;2022-09-13T06:41:02;0.55;;;0.55;;
50757;SDS011;36732;47.980;11.652;2022-09-13T06:43:31;0.85;;;0.52;;
50757;SDS011;36732;47.980;11.652;2022-09-13T06:45:59;1.60;;;0.70;;
50757;SDS011;36732;47.980;11.652;2022-09-13T06:48:30;2.22;;;0.75;;
50757;SDS011;36732;47.980;11.652;2022-09-13T06:51:02;1.75;;;0.65;;
50757;SDS011;36732;47.980;11.652;2022-09-13T06:53:32;1.13;;;0.70;;
50757;SDS011;36732;47.980;11.652;2022-09-13T06:56:06;1.13;;;0.60;;
50757;SDS011;36732;47.980;11.652;2022-09-13T06:58:34;1.38;;;0.93;;
50757;SDS011;36732;47.980;11.652;2022-09-13T07:01:08;0.70;;;0.60;;
50757;SDS011;36732;47.980;11.652;2022-09-13T07:03:58;2.50;;;0.70;;
50757;SDS011;36732;47.980;11.652;2022-09-13T07:06:29;1.45;;;0.57;;
50757;SDS011;36732;47.980;11.652;2022-09-13T07:08:58;0.82;;;0.50;;
50757;SDS011;36732;47.980;11.652;2022-09-13T07:11:28;1.20;;;0.52;;
50757;SDS011;36732;47.980;11.652;2022-09-13T07:13:59;1.77;;;0.70;;
50757;SDS011;36732;47.980;11.652;2022-09-13T07:16:26;1.52;;;0.80;;
50757;SDS011;36732;47.980;11.652;2022-09-13T07:18:55;0.68;;;0.68;;
50757;SDS011;36732;47.980;11.652;2022-09-13T07:21:30;1.38;;;0.60;;
50757;SDS011;36732;47.980;11.652;2022-09-13T07:23:58;0.90;;;0.57;;
50757;SDS011;36732;47.980;11.652;2022-09-13T07:26:24;0.68;;;0.47;;
50757;SDS011;36732;47.980;11.652;2022-09-13T07:28:56;0.80;;;0.52;;
50757;SDS011;36732;47.980;11.652;2022-09-13T07:31:31;0.80;;;0.60;;
50757;SDS011;36732;47.980;11.652;2022-09-13T07:34:04;0.60;;;0.60;;
50757;SDS011;36732;47.980;11.652;2022-09-13T07:36:33;0.70;;;0.60;;
50757;SDS011;36732;47.980;11.652;2022-09-13T07:39:00;1.70;;;0.50;;
50757;SDS011;36732;47.980;11.652;2022-09-13T07:41:27;0.40;;;0.40;;
50757;SDS011;36732;47.980;11.652;2022-09-13T07:43:53;0.65;;;0.60;;
50757;SDS011;36732;47.980;11.652;2022-09-13T07:46:26;1.10;;;0.55;;
50757;SDS011;36732;47.980;11.652;2022-09-13T07:48:58;0.70;;;0.60;;
50757;SDS011;36732;47.980;11.652;2022-09-13T07:51:26;1.10;;;0.75;;
50757;SDS011;36732;47.980;11.652;2022-09-13T07:53:55;1.00;;;0.70;;
50757;SDS011;36732;47.980;11.652;2022-09-13T07:56:24;1.27;;;0.63;;
50757;SDS011;36732;47.980;11.652;2022-09-13T07:58:53;0.40;;;0.40;;
50757;SDS011;36732;47.980;11.652;2022-09-13T08:01:20;0.57;;;0.50;;
50757;SDS011;36732;47.980;11.652;2022-09-13T08:03:51;0.50;;;0.50;;
50757;SDS011;36732;47.980;11.652;2022-09-13T08:06:22;2.65;;;0.70;;
50757;SDS011;36732;47.980;11.652;2022-09-13T08:08:51;2.58;;;0.80;;
50757;SDS011;36732;47.980;11.652;2022-09-13T08:11:18;0.52;;;0.52;;
50757;SDS011;36732;47.980;11.652;2022-09-13T08:13:46;0.90;;;0.60;;
50757;SDS011;36732;47.980;11.652;2022-09-13T08:16:13;0.50;;;0.50;;
50757;SDS011;36732;47.980;11.652;2022-09-13T08:18:45;1.55;;;0.55;;
50757;SDS011;36732;47.980;11.652;2022-09-13T08:21:16;0.50;;;0.50;;
50757;SDS011;36732;47.980;11.652;2022-09-13T08:23:42;2.63;;;0.70;;
50757;SDS011;36732;47.980;11.652;2022-09-13T08:26:08;0.50;;;0.43;;
50757;SDS011;36732;47.980;11.652;2022-09-13T08:28:35;1.08;;;0.80;;
50757;SDS011;36732;47.980;11.652;2022-09-13T08:31:04;0.77;;;0.68;;
50757;SDS011;36732;47.980;11.652;2022-09-13T08:33:35;2.80;;;0.73;;
50757;SDS011;36732;47.980;11.652;2022-09-13T08:36:02;0.80;;;0.40;;
50757;SDS011;36732;47.980;11.652;2022-09-13T08:38:29;0.50;;;0.50;;
50757;SDS011;36732;47.980;11.652;2022-09-13T08:40:57;1.15;;;0.60;;
50757;SDS011;36732;47.980;11.652;2022-09-13T08:48:46;0.90;;;0.40;;
50757;SDS011;36732;47.980;11.652;2022-09-13T08:51:23;0.40;;;0.38;;
50757;SDS011;36732;47.980;11.652;2022-09-13T08:54:12;1.00;;;0.60;;
50757;SDS011;36732;47.980;11.652;2022-09-13T09:00:00;0.52;;;0.45;;
50757;SDS011;36732;47.980;11.652;2022-09-13T09:02:56;1.67;;;0.52;;
50757;SDS011;36732;47.980;11.652;2022-09-13T09:05:53;1.98;;;0.47;;
50757;SDS011;36732;47.980;11.652;2022-09-13T09:08:39;0.50;;;0.50;;
50757;SDS011;36732;47.980;11.652;2022-09-13T09:11:33;4.38;;;0.60;;
50757;SDS011;36732;47.980;11.652;2022-09-13T09:16:56;1.20;;;0.60;;
50757;SDS011;36732;47.980;11.652;2022-09-13T09:21:58;1.13;;;0.50;;
50757;SDS011;36732;47.980;11.652;2022-09-13T09:24:26;0.52;;;0.47;;
50757;SDS011;36732;47.980;11.652;2022-09-13T09:26:52;1.77;;;0.47;;
50757;SDS011;36732;47.980;11.652;2022-09-13T09:29:25;0.47;;;0.47;;
50757;SDS011;36732;47.980;11.652;2022-09-13T09:37:49;0.60;;;0.60;;
50757;SDS011;36732;47.980;11.652;2022-09-13T09:41:26;0.82;;;0.43;;
50757;SDS011;36732;47.980;11.652;2022-09-13T09:46:42;1.60;;;0.50;;
50757;SDS011;36732;47.980;11.652;2022-09-13T09:49:25;0.93;;;0.70;;
50757;SDS011;36732;47.980;11.652;2022-09-13T09:52:22;0.50;;;0.50;;
50757;SDS011;36732;47.980;11.652;2022-09-13T09:54:58;0.75;;;0.60;;
50757;SDS011;36732;47.980;11.652;2022-09-13T09:57:48;1.40;;;0.47;;
50757;SDS011;36732;47.980;11.652;2022-09-13T10:00:30;0.63;;;0.63;;
50757;SDS011;36732;47.980;11.652;2022-09-13T10:03:00;0.60;;;0.60;;
50757;SDS011;36732;47.980;11.652;2022-09-13T10:05:39;0.45;;;0.45;;
50757;SDS011;36732;47.980;11.652;2022-09-13T10:08:05;0.73;;;0.60;;
50757;SDS011;36732;47.980;11.652;2022-09-13T10:13:06;0.82;;;0.75;;
50757;SDS011;36732;47.980;11.652;2022-09-13T10:18:53;2.08;;;0.60;;
50757;SDS011;36732;47.980;11.652;2022-09-13T10:21:40;2.33;;;0.50;;
50757;SDS011;36732;47.980;11.652;2022-09-13T10:24:15;1.20;;;0.57;;
50757;SDS011;36732;47.980;11.652;2022-09-13T10:26:45;0.80;;;0.70;;
50757;SDS011;36732;47.980;11.652;2022-09-13T10:29:14;1.33;;;0.50;;
50757;SDS011;36732;47.980;11.652;2022-09-13T10:31:42;1.08;;;0.77;;
50757;SDS011;36732;47.980;11.652;2022-09-13T10:37:03;0.85;;;0.43;;
50757;SDS011;36732;47.980;11.652;2022-09-13T10:39:48;1.23;;;0.60;;
50757;SDS011;36732;47.980;11.652;2022-09-13T10:42:23;1.02;;;0.50;;
50757;SDS011;36732;47.980;11.652;2022-09-13T10:44:52;0.68;;;0.50;;
50757;SDS011;36732;47.980;11.652;2022-09-13T10:50:22;0.43;;;0.40;;
50757;SDS011;36732;47.980;11.652;2022-09-13T10:52:59;1.30;;;0.60;;
50757;SDS011;36732;47.980;11.652;2022-09-13T10:55:27;1.00;;;0.70;;
50757;SDS011;36732;47.980;11.652;2022-09-13T11:00:37;1.65;;;0.70;;
50757;SDS011;36732;47.980;11.652;2022-09-13T11:05:52;1.50;;;0.70;;
50757;SDS011;36732;47.980;11.652;2022-09-13T11:17:01;0.60;;;0.60;;
50757;SDS011;36732;47.980;11.652;2022-09-13T11:22:46;0.70;;;0.40;;
50757;SDS011;36732;47.980;11.652;2022-09-13T11:31:51;1.15;;;0.65;;
50757;SDS011;36732;47.980;11.652;2022-09-13T11:34:52;0.90;;;0.40;;
50757;SDS011;36732;47.980;11.652;2022-09-13T11:38:03;0.80;;;0.43;;
50757;SDS011;36732;47.980;11.652;2022-09-13T11:55:49;0.60;;;0.52;;
50757;SDS011;36732;47.980;11.652;2022-09-13T11:58:20;2.55;;;0.70;;
50757;SDS011;36732;47.980;11.652;2022-09-13T12:03:26;0.85;;;0.55;;
50757;SDS011;36732;47.980;11.652;2022-09-13T12:06:39;2.50;;;0.60;;
50757;SDS011;36732;47.980;11.652;2022-09-13T12:12:04;1.02;;;0.60;;
50757;SDS011;36732;47.980;11.652;2022-09-13T12:14:36;2.13;;;0.60;;
50757;SDS011;36732;47.980;11.652;2022-09-13T12:17:18;0.33;;;0.30;;
50757;SDS011;36732;47.980;11.652;2022-09-13T12:20:03;0.60;;;0.40;;
50757;SDS011;36732;47.980;11.652;2022-09-13T12:22:37;3.83;;;0.47;;
50757;SDS011;36732;47.980;11.652;2022-09-13T12:25:15;0.43;;;0.40;;
50757;SDS011;36732;47.980;11.652;2022-09-13T12:28:09;0.38;;;0.30;;
50757;SDS011;36732;47.980;11.652;2022-09-13T12:30:54;1.40;;;0.40;;
50757;SDS011;36732;47.980;11.652;2022-09-13T12:33:26;0.57;;;0.40;;
50757;SDS011;36732;47.980;11.652;2022-09-13T12:36:54;0.30;;;0.30;;
50757;SDS011;36732;47.980;11.652;2022-09-13T12:41:37;1.65;;;0.40;;
50757;SDS011;36732;47.980;11.652;2022-09-13T12:47:41;1.00;;;0.43;;
50757;SDS011;36732;47.980;11.652;2022-09-13T12:54:07;0.60;;;0.32;;
50757;SDS011;36732;47.980;11.652;2022-09-13T12:57:03;1.23;;;0.40;;
50757;SDS011;36732;47.980;11.652;2022-09-13T13:03:20;1.35;;;0.50;;
50757;SDS011;36732;47.980;11.652;2022-09-13T13:05:40;0.60;;;0.40;;
50757;SDS011;36732;47.980;11.652;2022-09-13T13:08:20;0.70;;;0.32;;
50757;SDS011;36732;47.980;11.652;2022-09-13T13:11:10;0.80;;;0.70;;
50757;SDS011;36732;47.980;11.652;2022-09-13T13:13:39;0.93;;;0.30;;
50757;SDS011;36732;47.980;11.652;2022-09-13T13:18:55;2.05;;;0.32;;
50757;SDS011;36732;47.980;11.652;2022-09-13T13:24:36;0.55;;;0.43;;
50757;SDS011;36732;47.980;11.652;2022-09-13T13:26:56;0.50;;;0.40;;
50757;SDS011;36732;47.980;11.652;2022-09-13T13:29:23;0.35;;;0.35;;
50757;SDS011;36732;47.980;11.652;2022-09-13T13:39:44;2.15;;;0.50;;
50757;SDS011;36732;47.980;11.652;2022-09-13T13:42:30;1.83;;;0.70;;
50757;SDS011;36732;47.980;11.652;2022-09-13T13:50:11;1.40;;;0.40;;
50757;SDS011;36732;47.980;11.652;2022-09-13T13:58:11;0.70;;;0.40;;
50757;SDS011;36732;47.980;11.652;2022-09-13T14:00:54;1.10;;;0.40;;
50757;SDS011;36732;47.980;11.652;2022-09-13T14:09:43;0.95;;;0.40;;
50757;SDS011;36732;47.980;11.652;2022-09-13T14:12:27;0.50;;;0.32;;
50757;SDS011;36732;47.980;11.652;2022-09-13T14:18:02;0.45;;;0.45;;
50757;SDS011;36732;47.980;11.652;2022-09-13T14:20:58;0.40;;;0.40;;
50757;SDS011;36732;47.980;11.652;2022-09-13T14:23:26;0.43;;;0.30;;
50757;SDS011;36732;47.980;11.652;2022-09-13T14:25:53;1.40;;;0.40;;
50757;SDS011;36732;47.980;11.652;2022-09-13T14:28:24;0.82;;;0.30;;
50757;SDS011;36732;47.980;11.652;2022-09-13T14:30:52;3.33;;;0.60;;
50757;SDS011;36732;47.980;11.652;2022-09-13T14:36:04;1.13;;;0.50;;
50757;SDS011;36732;47.980;11.652;2022-09-13T14:38:37;0.43;;;0.30;;
50757;SDS011;36732;47.980;11.652;2022-09-13T14:41:18;2.40;;;0.30;;
50757;SDS011;36732;47.980;11.652;2022-09-13T14:43:47;0.30;;;0.30;;
50757;SDS011;36732;47.980;11.652;2022-09-13T14:49:02;2.30;;;0.43;;
50757;SDS011;36732;47.980;11.652;2022-09-13T14:51:38;0.82;;;0.40;;
50757;SDS011;36732;47.980;11.652;2022-09-13T14:54:25;0.40;;;0.30;;
50757;SDS011;36732;47.980;11.652;2022-09-13T14:57:01;0.45;;;0.30;;
50757;SDS011;36732;47.980;11.652;2022-09-13T14:59:33;0.85;;;0.38;;
50757;SDS011;36732;47.980;11.652;2022-09-13T15:02:15;0.30;;;0.30;;
50757;SDS011;36732;47.980;11.652;2022-09-13T15:04:51;0.77;;;0.50;;
50757;SDS011;36732;47.980;11.652;2022-09-13T15:09:55;2.88;;;0.90;;
50757;SDS011;36732;47.980;11.652;2022-09-13T15:12:29;0.40;;;0.40;;
50757;SDS011;36732;47.980;11.652;2022-09-13T15:18:01;2.13;;;0.40;;
50757;SDS011;36732;47.980;11.652;2022-09-13T15:23:16;0.65;;;0.40;;
50757;SDS011;36732;47.980;11.652;2022-09-13T15:26:07;0.55;;;0.38;;
50757;SDS011;36732;47.980;11.652;2022-09-13T15:31:09;1.63;;;0.52;;
50757;SDS011;36732;47.980;11.652;2022-09-13T15:33:46;1.98;;;0.45;;
50757;SDS011;36732;47.980;11.652;2022-09-13T15:36:13;0.50;;;0.47;;
50757;SDS011;36732;47.980;11.652;2022-09-13T15:41:35;0.90;;;0.40;;
50757;SDS011;36732;47.980;11.652;2022-09-13T15:44:07;1.02;;;0.50;;
50757;SDS011;36732;47.980;11.652;2022-09-13T15:46:36;2.58;;;0.40;;
50757;SDS011;36732;47.980;11.652;2022-09-13T15:49:28;2.08;;;0.40;;
50757;SDS011;36732;47.980;11.652;2022-09-13T15:51:56;1.10;;;0.30;;
50757;SDS011;36732;47.980;11.652;2022-09-13T15:54:37;1.13;;;0.57;;
50757;SDS011;36732;47.980;11.652;2022-09-13T15:57:07;2.83;;;0.50;;
50757;SDS011;36732;47.980;11.652;2022-09-13T15:59:45;0.57;;;0.40;;
50757;SDS011;36732;47.980;11.652;2022-09-13T16:02:16;0.88;;;0.40;;
50757;SDS011;36732;47.980;11.652;2022-09-13T16:04:45;0.82;;;0.55;;
50757;SDS011;36732;47.980;11.652;2022-09-13T16:07:10;0.60;;;0.50;;
50757;SDS011;36732;47.980;11.652;2022-09-13T16:09:36;1.75;;;0.70;;
50757;SDS011;36732;47.980;11.652;2022-09-13T16:12:03;4.72;;;0.60;;
50757;SDS011;36732;47.980;11.652;2022-09-13T16:14:29;1.52;;;0.40;;
50757;SDS011;36732;47.980;11.652;2022-09-13T16:16:55;2.65;;;0.50;;
50757;SDS011;36732;47.980;11.652;2022-09-13T16:19:21;0.82;;;0.40;;
50757;SDS011;36732;47.980;11.652;2022-09-13T16:21:47;0.68;;;0.50;;
50757;SDS011;36732;47.980;11.652;2022-09-13T16:24:14;1.30;;;0.40;;
50757;SDS011;36732;47.980;11.652;2022-09-13T16:26:41;4.20;;;0.80;;
50757;SDS011;36732;47.980;11.652;2022-09-13T16:29:08;0.50;;;0.45;;
50757;SDS011;36732;47.980;11.652;2022-09-13T16:31:36;0.82;;;0.40;;
50757;SDS011;36732;47.980;11.652;2022-09-13T16:34:01;2.05;;;0.65;;
50757;SDS011;36732;47.980;11.652;2022-09-13T16:36:27;0.85;;;0.60;;
50757;SDS011;36732;47.980;11.652;2022-09-13T16:38:54;0.50;;;0.50;;
50757;SDS011;36732;47.980;11.652;2022-09-13T16:41:20;1.55;;;0.50;;
50757;SDS011;36732;47.980;11.652;2022-09-13T16:43:46;1.42;;;0.50;;
50757;SDS011;36732;47.980;11.652;2022-09-13T16:46:12;0.55;;;0.43;;
50757;SDS011;36732;47.980;11.652;2022-09-13T16:48:39;2.83;;;0.50;;
50757;SDS011;36732;47.980;11.652;2022-09-13T16:51:06;0.55;;;0.45;;
50757;SDS011;36732;47.980;11.652;2022-09-13T16:53:37;0.35;;;0.30;;
50757;SDS011;36732;47.980;11.652;2022-09-13T16:58:40;2.72;;;0.40;;
50757;SDS011;36732;47.980;11.652;2022-09-13T17:01:09;5.25;;;0.63;;
50757;SDS011;36732;47.980;11.652;2022-09-13T17:03:37;2.72;;;0.80;;
50757;SDS011;36732;47.980;11.652;2022-09-13T17:06:04;1.13;;;0.65;;
50757;SDS011;36732;47.980;11.652;2022-09-13T17:08:33;4.18;;;0.80;;
50757;SDS011;36732;47.980;11.652;2022-09-13T17:11:05;0.70;;;0.55;;
50757;SDS011;36732;47.980;11.652;2022-09-13T17:13:34;1.90;;;0.90;;
50757;SDS011;36732;47.980;11.652;2022-09-13T17:16:01;2.53;;;0.60;;
50757;SDS011;36732;47.980;11.652;2022-09-13T17:18:29;3.60;;;0.57;;
50757;SDS011;36732;47.980;11.652;2022-09-13T17:20:55;1.25;;;0.60;;
50757;SDS011;36732;47.980;11.652;2022-09-13T17:23:24;1.27;;;0.70;;
50757;SDS011;36732;47.980;11.652;2022-09-13T17:25:50;3.60;;;0.90;;
50757;SDS011;36732;47.980;11.652;2022-09-13T17:28:16;0.88;;;0.77;;
50757;SDS011;36732;47.980;11.652;2022-09-13T17:30:43;2.10;;;0.70;;
50757;SDS011;36732;47.980;11.652;2022-09-13T17:33:11;2.33;;;0.80;;
50757;SDS011;36732;47.980;11.652;2022-09-13T17:35:37;1.40;;;0.88;;
50757;SDS011;36732;47.980;11.652;2022-09-13T17:38:04;1.35;;;0.75;;
50757;SDS011;36732;47.980;11.652;2022-09-13T17:40:30;0.70;;;0.70;;
50757;SDS011;36732;47.980;11.652;2022-09-13T17:42:57;1.85;;;0.82;;
50757;SDS011;36732;47.980;11.652;2022-09-13T17:45:23;3.42;;;0.80;;
50757;SDS011;36732;47.980;11.652;2022-09-13T17:47:53;1.70;;;0.70;;
50757;SDS011;36732;47.980;11.652;2022-09-13T17:50:21;0.50;;;0.50;;
50757;SDS011;36732;47.980;11.652;2022-09-13T17:52:47;1.65;;;0.73;;
50757;SDS011;36732;47.980;11.652;2022-09-13T17:55:15;0.63;;;0.63;;
50757;SDS011;36732;47.980;11.652;2022-09-13T17:57:42;3.25;;;0.95;;
50757;SDS011;36732;47.980;11.652;2022-09-13T18:00:13;1.38;;;0.80;;
50757;SDS011;36732;47.980;11.652;2022-09-13T18:02:42;1.65;;;0.95;;
50757;SDS011;36732;47.980;11.652;2022-09-13T18:05:08;5.30;;;0.90;;
50757;SDS011;36732;47.980;11.652;2022-09-13T18:07:34;3.38;;;0.70;;
50757;SDS011;36732;47.980;11.652;2022-09-13T18:10:00;2.65;;;0.90;;
50757;SDS011;36732;47.980;11.652;2022-09-13T18:12:25;2.03;;;0.93;;
50757;SDS011;36732;47.980;11.652;2022-09-13T18:14:51;3.15;;;1.13;;
50757;SDS011;36732;47.980;11.652;2022-09-13T18:17:17;1.88;;;0.80;;
50757;SDS011;36732;47.980;11.652;2022-09-13T18:19:42;1.08;;;0.70;;
50757;SDS011;36732;47.980;11.652;2022-09-13T18:22:08;2.08;;;0.70;;